Terminal Aerodrome Forecast
Issued by NWS Tampa Bay Area, FL

Home | Current Version | Previous Version | Text Only | Print | Product List | Glossary On
Versions: 1 2 3 4 5 6 7 8 9 10 11 12 13 14 15 16 17 18 19 20 21 22 23 24
634
FTUS42 KTBW 211121
TAFTPA
TAF
KTPA 211121Z 2112/2212 VRB03KT P6SM SCT080
     FM211600 05006KT P6SM FEW070 SCT150
     FM212100 35007KT P6SM BKN050
     FM220000 03006KT P6SM BKN040=

USA.gov is the U.S. government's official web portal to all federal, state and local government web resources and services.